Language: 


Des rapports , des résumés tant et plus, au choix de chacun....


Données statistiques de la station
Quotidien Rapport Septembre 5, 2017 Unités:  Métrique    Anglais   les deux
« Précédent Jour
Suivant Jour »
Quotidien Hebdomadaire Mensuel Annuel Actuel
  Haut: Bas: Moyen:
Température: 22.8 °C 0.0 °C 19.2 °C
Pt de rosée: 21.0 °C 16.0 °C 17.9 °C
Humidité: 97 % 0 % 91 %
Vitesse du vent: 24.8 km/h 0.0 km/h 4.5 km/h
Rafales: 30.9 km/h - -
Vent:- - SW
Pression: 1016.8 hPa 0.0 hPa -
Précipitation: 1.0 mm    
Historical Graphs
 
 
Données statistiques pour Septembre 5, 2017
Heure Température Point de rosée Pression Vent Vitesse du vent Refales Humidité Pluie (taux horaire)
00:01 17.8 °C 17.0 °C 1016.1 hPa Calm     96 % 0.0 mm
00:06 17.8 °C 17.0 °C 1016.1 hPa Calm     96 % 0.0 mm
00:11 17.8 °C 17.0 °C 1016.1 hPa Calm     96 % 0.0 mm
00:16 17.8 °C 17.0 °C 1016.1 hPa Calm     96 % 0.0 mm
00:21 17.8 °C 17.0 °C 1016.1 hPa Calm     96 % 0.0 mm
00:26 17.8 °C 17.0 °C 1016.1 hPa Calm   4.0 km/h 96 % 0.0 mm
00:31 17.8 °C 17.0 °C 1016.8 hPa Calm   4.0 km/h 96 % 0.0 mm
00:36 17.8 °C 17.0 °C 1016.8 hPa Calm     96 % 0.0 mm
00:41 17.8 °C 17.0 °C 1016.8 hPa Calm     96 % 0.0 mm
00:46 17.9 °C 18.0 °C 1016.8 hPa Calm     96 % 0.0 mm
00:51 17.9 °C 18.0 °C 1016.8 hPa Calm     96 % 0.0 mm
00:56 17.9 °C 18.0 °C 1016.8 hPa Calm     96 % 0.0 mm
01:01 17.9 °C 18.0 °C 1016.8 hPa Calm     96 % 0.0 mm
01:06 17.9 °C 18.0 °C 1016.8 hPa Calm     96 % 0.0 mm
01:12 17.9 °C 18.0 °C 1016.8 hPa Calm     96 % 0.0 mm
01:17 17.9 °C 18.0 °C 1016.8 hPa Calm     96 % 0.0 mm
01:22 17.9 °C 18.0 °C 1016.8 hPa Calm     96 % 0.0 mm
01:27 17.9 °C 18.0 °C 1016.8 hPa Calm     96 % 0.0 mm
01:32 17.9 °C 18.0 °C 1016.8 hPa Calm     96 % 0.0 mm
01:37 17.9 °C 18.0 °C 1016.8 hPa Calm     96 % 0.0 mm
01:42 17.9 °C 18.0 °C 1016.8 hPa Calm     96 % 0.0 mm
01:47 17.9 °C 18.0 °C 1016.8 hPa Calm     96 % 0.0 mm
01:52 17.9 °C 18.0 °C 1016.8 hPa Calm     96 % 0.0 mm
01:57 17.9 °C 18.0 °C 1016.8 hPa Calm     96 % 0.0 mm
02:02 17.9 °C 18.0 °C 1016.8 hPa Calm     96 % 0.0 mm
02:07 17.8 °C 17.0 °C 1016.8 hPa Calm     96 % 0.0 mm
02:12 17.8 °C 17.0 °C 1016.8 hPa Calm     96 % 0.0 mm
02:17 17.8 °C 17.0 °C 1016.8 hPa Calm     96 % 0.0 mm
02:22 17.9 °C 18.0 °C 1016.8 hPa Calm     97 % 0.0 mm
02:26 17.9 °C 18.0 °C 1016.8 hPa Calm     97 % 0.0 mm
02:31 17.9 °C 18.0 °C 1016.8 hPa Calm     97 % 0.0 mm
02:36 17.9 °C 18.0 °C 1016.8 hPa SSW 1.4 km/h 7.6 km/h 97 % 0.0 mm
02:41 17.9 °C 18.0 °C 1016.8 hPa Calm   7.6 km/h 97 % 0.0 mm
02:46 17.9 °C 18.0 °C 1016.1 hPa Calm   1.8 km/h 97 % 0.0 mm
02:51 17.9 °C 18.0 °C 1016.1 hPa Calm   4.7 km/h 97 % 0.0 mm
02:56 18.0 °C 18.0 °C 1016.1 hPa Calm   4.7 km/h 96 % 0.0 mm
03:01 0.0 °C 18.0 °C 0.0 hPa Calm     0 % 0.0 mm
03:06 18.0 °C 18.0 °C 1016.1 hPa Calm   2.1 km/h 96 % 0.0 mm
03:11 18.0 °C 18.0 °C 1016.1 hPa Calm   2.1 km/h 96 % 0.0 mm
03:16 18.0 °C 18.0 °C 1016.1 hPa Calm     96 % 0.0 mm
03:21 18.0 °C 18.0 °C 1016.1 hPa Calm   30.9 km/h 96 % 0.0 mm
03:26 18.0 °C 18.0 °C 1016.1 hPa Calm   30.9 km/h 96 % 0.0 mm
03:31 18.0 °C 18.0 °C 1016.1 hPa Calm   2.1 km/h 96 % 0.0 mm
03:36 18.0 °C 18.0 °C 1016.1 hPa Calm   3.5 km/h 96 % 0.0 mm
03:41 17.9 °C 18.0 °C 1016.1 hPa Calm   3.5 km/h 97 % 0.0 mm
03:47 17.9 °C 18.0 °C 1016.1 hPa Calm   4.3 km/h 97 % 0.0 mm
03:52 17.9 °C 18.0 °C 1016.1 hPa Calm   5.0 km/h 97 % 0.0 mm
03:57 17.9 °C 18.0 °C 1016.1 hPa Calm   5.0 km/h 97 % 0.0 mm
04:02 17.9 °C 18.0 °C 1016.8 hPa Calm     97 % 0.0 mm
04:07 17.9 °C 18.0 °C 1016.8 hPa Calm     97 % 0.0 mm
04:12 17.9 °C 18.0 °C 1016.8 hPa Calm   1.4 km/h 97 % 0.0 mm
04:17 17.9 °C 18.0 °C 1016.1 hPa Calm   1.4 km/h 97 % 0.0 mm
04:22 18.0 °C 18.0 °C 1016.1 hPa Calm   5.8 km/h 96 % 0.0 mm
04:27 18.0 °C 18.0 °C 1016.1 hPa South 4.3 km/h 5.8 km/h 96 % 0.0 mm
04:32 18.0 °C 18.0 °C 1016.1 hPa Calm   5.0 km/h 96 % 0.0 mm
04:37 18.0 °C 18.0 °C 1016.1 hPa Calm   4.3 km/h 96 % 0.0 mm
04:42 18.0 °C 18.0 °C 1016.1 hPa Calm     96 % 0.0 mm
04:47 18.0 °C 18.0 °C 1016.1 hPa Calm   4.7 km/h 96 % 0.0 mm
04:52 18.0 °C 18.0 °C 1016.1 hPa Calm   4.7 km/h 96 % 0.0 mm
04:57 18.0 °C 18.0 °C 1016.1 hPa Calm   3.2 km/h 96 % 0.0 mm
05:02 18.0 °C 18.0 °C 1016.1 hPa Calm   3.2 km/h 96 % 0.0 mm
05:07 17.8 °C 17.0 °C 1016.1 hPa Calm   1.8 km/h 96 % 0.0 mm
05:13 17.7 °C 17.0 °C 1016.1 hPa Calm   1.8 km/h 96 % 0.0 mm
05:18 17.7 °C 17.0 °C 1016.1 hPa Calm     96 % 0.0 mm
05:23 17.7 °C 17.0 °C 1016.1 hPa Calm     96 % 0.0 mm
05:24 17.7 °C 17.0 °C 1016.1 hPa Calm     96 % 0.0 mm
05:26 17.7 °C 17.0 °C 1016.1 hPa South 1.8 km/h 1.8 km/h 96 % 0.0 mm
05:31 17.7 °C 17.0 °C 1015.1 hPa Calm   1.8 km/h 96 % 0.0 mm
05:36 16.9 °C 17.0 °C 1015.1 hPa Calm     97 % 0.0 mm
05:41 16.8 °C 16.0 °C 1015.1 hPa Calm     97 % 0.0 mm
05:46 16.8 °C 16.0 °C 1015.1 hPa Calm     97 % 0.0 mm
05:52 16.8 °C 16.0 °C 1015.1 hPa Calm     97 % 0.0 mm
05:57 16.8 °C 16.0 °C 1015.1 hPa Calm     97 % 0.0 mm
06:02 16.8 °C 16.0 °C 1015.1 hPa Calm     97 % 0.0 mm
06:07 16.8 °C 16.0 °C 1015.1 hPa Calm     97 % 0.0 mm
06:12 16.8 °C 16.0 °C 1015.1 hPa Calm   1.8 km/h 97 % 0.0 mm
06:17 16.8 °C 16.0 °C 1016.1 hPa Calm   1.8 km/h 97 % 0.0 mm
06:22 17.2 °C 17.0 °C 1016.1 hPa Calm     97 % 0.0 mm
06:27 17.3 °C 17.0 °C 1016.1 hPa Calm     97 % 0.0 mm
06:32 17.3 °C 17.0 °C 1015.1 hPa Calm   4.7 km/h 97 % 0.0 mm
06:37 17.3 °C 17.0 °C 1015.1 hPa Calm   4.7 km/h 97 % 0.0 mm
06:42 17.3 °C 17.0 °C 1015.1 hPa Calm     97 % 0.0 mm
06:47 17.3 °C 17.0 °C 1015.1 hPa Calm     97 % 0.0 mm
06:52 17.4 °C 17.0 °C 1015.1 hPa Calm     97 % 0.0 mm
06:57 17.4 °C 17.0 °C 1015.1 hPa Calm     97 % 0.0 mm
07:02 17.4 °C 17.0 °C 1016.1 hPa Calm     97 % 0.0 mm
07:08 17.4 °C 17.0 °C 1016.1 hPa Calm     97 % 0.0 mm
07:13 17.4 °C 17.0 °C 1016.1 hPa Calm     97 % 0.0 mm
07:18 17.5 °C 17.0 °C 1015.1 hPa Calm   2.1 km/h 97 % 0.0 mm
07:23 17.5 °C 17.0 °C 1015.1 hPa Calm   2.1 km/h 97 % 0.0 mm
07:28 17.5 °C 17.0 °C 1015.1 hPa Calm     97 % 0.0 mm
07:33 17.5 °C 17.0 °C 1015.1 hPa Calm     97 % 0.0 mm
07:38 17.5 °C 17.0 °C 1015.1 hPa Calm   1.8 km/h 97 % 0.0 mm
07:43 17.6 °C 17.0 °C 1015.1 hPa Calm   1.8 km/h 97 % 0.0 mm
07:48 17.6 °C 17.0 °C 1015.1 hPa Calm     97 % 0.0 mm
07:53 17.6 °C 17.0 °C 1015.1 hPa Calm     97 % 0.0 mm
07:58 17.6 °C 17.0 °C 1015.1 hPa Calm   2.1 km/h 97 % 0.0 mm
08:03 17.6 °C 17.0 °C 1015.1 hPa Calm   2.1 km/h 97 % 0.0 mm
08:08 17.7 °C 17.0 °C 1015.1 hPa Calm     97 % 0.0 mm
08:13 17.8 °C 17.0 °C 1015.1 hPa Calm     97 % 0.0 mm
08:18 17.8 °C 17.0 °C 1015.1 hPa Calm     97 % 0.0 mm
08:23 17.8 °C 17.0 °C 1015.1 hPa Calm     97 % 0.0 mm
08:28 18.0 °C 18.0 °C 1015.1 hPa Calm   1.8 km/h 97 % 0.0 mm
08:33 18.0 °C 18.0 °C 1015.1 hPa Calm   2.6 km/h 97 % 0.0 mm
08:38 18.2 °C 18.0 °C 1015.1 hPa Calm   3.5 km/h 97 % 0.0 mm
08:44 18.2 °C 18.0 °C 1015.1 hPa Calm   4.3 km/h 97 % 0.0 mm
08:49 18.2 °C 18.0 °C 1015.1 hPa SSW 3.5 km/h 6.1 km/h 97 % 0.0 mm
08:54 18.2 °C 18.0 °C 1015.1 hPa SSW 4.3 km/h 8.7 km/h 97 % 0.0 mm
08:59 18.2 °C 18.0 °C 1015.1 hPa South 5.0 km/h 9.0 km/h 97 % 0.0 mm
09:04 18.6 °C 18.0 °C 1015.1 hPa Calm   9.0 km/h 96 % 0.0 mm
09:09 18.6 °C 18.0 °C 1015.1 hPa South 4.0 km/h 7.9 km/h 96 % 0.0 mm
09:14 18.6 °C 18.0 °C 1015.1 hPa South 1.4 km/h 6.4 km/h 96 % 0.0 mm
09:19 18.6 °C 18.0 °C 1015.1 hPa ESE 3.2 km/h 4.0 km/h 96 % 0.0 mm
09:24 18.6 °C 18.0 °C 1015.1 hPa SSW 2.1 km/h 3.5 km/h 96 % 0.0 mm
09:26 18.6 °C 18.0 °C 1015.1 hPa Calm   6.4 km/h 96 % 0.0 mm
09:31 19.1 °C 19.0 °C 1014.1 hPa Calm   6.4 km/h 96 % 0.0 mm
09:36 19.1 °C 19.0 °C 1014.1 hPa SSW 4.3 km/h 10.1 km/h 96 % 0.0 mm
09:41 19.4 °C 19.0 °C 1014.1 hPa SSW 6.1 km/h 10.1 km/h 95 % 0.0 mm
09:46 19.4 °C 19.0 °C 1015.1 hPa Calm   8.7 km/h 95 % 0.0 mm
09:51 19.4 °C 19.0 °C 1015.1 hPa South 5.8 km/h 9.7 km/h 95 % 0.0 mm
09:56 19.9 °C 19.0 °C 1015.1 hPa Calm   12.2 km/h 95 % 0.0 mm
10:01 19.9 °C 19.0 °C 1015.1 hPa South 4.3 km/h 13.0 km/h 95 % 0.0 mm
10:06 19.9 °C 19.0 °C 1015.1 hPa SSW 6.4 km/h 13.0 km/h 95 % 0.0 mm
10:11 20.1 °C 19.0 °C 1015.1 hPa WSW 8.7 km/h 9.7 km/h 94 % 0.0 mm
10:16 20.1 °C 19.0 °C 1015.1 hPa SSW 1.8 km/h 9.7 km/h 94 % 0.0 mm
10:21 20.2 °C 19.0 °C 1015.1 hPa SSW 7.6 km/h 8.7 km/h 93 % 0.0 mm
10:26 20.2 °C 19.0 °C 1015.1 hPa SSW 6.1 km/h 11.6 km/h 93 % 0.0 mm
10:32 20.2 °C 19.0 °C 1015.1 hPa SSE 4.0 km/h 14.0 km/h 93 % 0.0 mm
10:37 20.2 °C 19.0 °C 1015.1 hPa South 6.9 km/h 14.0 km/h 93 % 0.0 mm
10:42 20.4 °C 19.0 °C 1015.1 hPa SSW 5.8 km/h 14.0 km/h 93 % 0.0 mm
10:47 20.5 °C 19.0 °C 1015.1 hPa WSW 5.0 km/h 12.2 km/h 92 % 0.0 mm
10:52 20.5 °C 19.0 °C 1015.1 hPa Calm   12.2 km/h 92 % 0.0 mm
10:57 20.5 °C 19.0 °C 1015.1 hPa SSW 10.5 km/h 10.5 km/h 92 % 0.0 mm
11:02 20.5 °C 19.0 °C 1015.1 hPa West 9.0 km/h 12.2 km/h 92 % 0.0 mm
11:07 20.5 °C 19.0 °C 1015.1 hPa SSW 3.5 km/h 12.2 km/h 92 % 0.0 mm
11:12 20.5 °C 19.0 °C 1015.1 hPa SW 7.6 km/h 12.2 km/h 92 % 0.0 mm
11:17 20.5 °C 19.0 °C 1015.1 hPa SW 10.1 km/h 12.2 km/h 92 % 0.0 mm
11:22 20.5 °C 19.0 °C 1015.1 hPa SW 2.6 km/h 11.6 km/h 92 % 0.0 mm
11:27 20.7 °C 19.0 °C 1015.1 hPa WSW 5.5 km/h 13.0 km/h 91 % 0.0 mm
11:32 20.7 °C 19.0 °C 1015.1 hPa SW 9.3 km/h 13.0 km/h 91 % 0.0 mm
11:38 21.0 °C 20.0 °C 1015.1 hPa SSW 4.7 km/h 13.7 km/h 91 % 0.0 mm
11:43 20.8 °C 19.0 °C 1015.1 hPa WSW 4.3 km/h 13.7 km/h 90 % 0.0 mm
11:48 20.8 °C 19.0 °C 1015.1 hPa WSW 6.4 km/h 14.0 km/h 90 % 0.0 mm
11:53 20.8 °C 19.0 °C 1015.1 hPa SW 5.0 km/h 14.0 km/h 90 % 0.0 mm
11:58 20.5 °C 19.0 °C 1015.1 hPa SSW 9.0 km/h 11.6 km/h 91 % 0.0 mm
12:03 20.5 °C 19.0 °C 1015.1 hPa Calm   11.6 km/h 91 % 0.0 mm
12:08 20.5 °C 19.0 °C 1015.1 hPa Calm   11.6 km/h 91 % 0.0 mm
12:13 20.5 °C 19.0 °C 1015.1 hPa SW 4.0 km/h 10.5 km/h 91 % 0.0 mm
12:18 21.1 °C 20.0 °C 1015.1 hPa WSW 10.5 km/h 10.5 km/h 92 % 0.0 mm
12:23 21.1 °C 20.0 °C 1015.1 hPa WSW 6.4 km/h 12.6 km/h 92 % 0.0 mm
12:28 21.1 °C 20.0 °C 1015.1 hPa WSW 6.9 km/h 12.6 km/h 92 % 0.0 mm
12:33 21.3 °C 20.0 °C 1015.1 hPa WSW 9.3 km/h 13.0 km/h 89 % 0.0 mm
12:38 21.3 °C 20.0 °C 1015.1 hPa WSW 10.1 km/h 13.0 km/h 89 % 0.0 mm
12:43 21.3 °C 20.0 °C 1015.1 hPa WSW 6.9 km/h 10.5 km/h 89 % 0.0 mm
12:48 21.3 °C 20.0 °C 1015.1 hPa West 8.7 km/h 13.7 km/h 89 % 0.0 mm
12:53 21.3 °C 20.0 °C 1015.1 hPa WSW 9.0 km/h 14.3 km/h 89 % 0.0 mm
12:58 20.7 °C 19.0 °C 1015.1 hPa West 13.0 km/h 14.3 km/h 90 % 0.0 mm
13:03 20.4 °C 19.0 °C 1015.1 hPa SW 10.8 km/h 13.0 km/h 90 % 0.5 mm
13:08 20.4 °C 19.0 °C 1015.1 hPa SW 10.8 km/h 13.0 km/h 90 % 0.5 mm
13:13 20.1 °C 19.0 °C 1015.1 hPa SSW 5.5 km/h 10.8 km/h 93 % 0.5 mm
13:18 20.6 °C 20.0 °C 1015.1 hPa SSW 10.5 km/h 10.8 km/h 94 % 0.5 mm
13:23 21.1 °C 20.0 °C 1015.1 hPa WSW 6.9 km/h 10.5 km/h 94 % 0.5 mm
13:28 21.1 °C 20.0 °C 1015.1 hPa WSW 9.7 km/h 10.5 km/h 94 % 0.5 mm
13:33 21.5 °C 21.0 °C 1015.1 hPa WSW 9.7 km/h 13.0 km/h 93 % 0.5 mm
13:38 21.5 °C 20.0 °C 1015.1 hPa WSW 7.9 km/h 13.0 km/h 92 % 0.5 mm
13:48 22.2 °C 21.0 °C 1014.1 hPa South 5.5 km/h 15.8 km/h 91 % 0.5 mm
13:53 22.2 °C 21.0 °C 1014.1 hPa South 10.5 km/h 10.5 km/h 91 % 0.5 mm
13:58 22.8 °C 21.0 °C 1014.1 hPa SSW 10.5 km/h 13.7 km/h 87 % 0.5 mm
13:59 22.8 °C 21.0 °C 1014.1 hPa SSW 10.1 km/h 13.7 km/h 87 % 0.3 mm
14:05 22.6 °C 20.0 °C 1015.1 hPa Calm   13.7 km/h 86 % 0.0 mm
14:10 22.6 °C 20.0 °C 1015.1 hPa NNW 11.9 km/h 13.0 km/h 86 % 0.0 mm
14:15 22.6 °C 20.0 °C 1015.1 hPa WSW 13.0 km/h 16.3 km/h 86 % 0.0 mm
14:20 22.2 °C 20.0 °C 1015.1 hPa West 5.0 km/h 16.3 km/h 84 % 0.0 mm
14:25 22.0 °C 19.0 °C 1015.1 hPa WSW 4.7 km/h 13.7 km/h 84 % 0.0 mm
14:30 21.9 °C 20.0 °C 1015.1 hPa WSW 6.1 km/h 13.0 km/h 85 % 0.3 mm
14:35 21.7 °C 19.0 °C 1015.1 hPa WSW 12.2 km/h 12.6 km/h 86 % 0.3 mm
14:40 21.4 °C 19.0 °C 1015.1 hPa WSW 9.0 km/h 17.7 km/h 85 % 0.3 mm
14:45 21.2 °C 19.0 °C 1015.1 hPa WSW 11.9 km/h 17.7 km/h 86 % 0.3 mm
14:55 21.2 °C 19.0 °C 1015.1 hPa WSW 13.7 km/h 20.1 km/h 86 % 0.3 mm
15:00 21.1 °C 19.0 °C 1015.1 hPa West 11.6 km/h 16.9 km/h 87 % 0.3 mm
15:05 21.1 °C 19.0 °C 1015.1 hPa West 5.0 km/h 15.8 km/h 87 % 0.3 mm
15:10 21.1 °C 19.0 °C 1015.1 hPa WSW 10.8 km/h 12.2 km/h 87 % 0.3 mm
15:15 21.1 °C 19.0 °C 1015.1 hPa WSW 10.5 km/h 15.1 km/h 87 % 0.3 mm
15:20 21.2 °C 19.0 °C 1015.1 hPa West 6.9 km/h 15.1 km/h 88 % 0.3 mm
15:25 21.2 °C 19.0 °C 1015.1 hPa West 12.2 km/h 12.2 km/h 88 % 0.3 mm
15:30 21.2 °C 19.0 °C 1015.1 hPa WSW 13.0 km/h 15.1 km/h 88 % 0.0 mm
15:35 21.5 °C 19.0 °C 1015.1 hPa WSW 12.2 km/h 15.1 km/h 86 % 0.0 mm
15:40 21.8 °C 19.0 °C 1015.1 hPa SW 10.5 km/h 16.9 km/h 86 % 0.0 mm
15:45 22.1 °C 19.0 °C 1015.1 hPa WSW 12.2 km/h 16.9 km/h 84 % 0.0 mm
15:50 22.1 °C 19.0 °C 1015.1 hPa West 16.9 km/h 16.9 km/h 84 % 0.0 mm
15:56 21.9 °C 19.0 °C 1015.1 hPa WSW 16.9 km/h 20.1 km/h 83 % 0.0 mm
16:01 21.9 °C 19.0 °C 1015.1 hPa SSW 17.2 km/h 20.6 km/h 83 % 0.0 mm
16:06 22.0 °C 19.0 °C 1015.1 hPa WSW 16.3 km/h 21.2 km/h 80 % 0.0 mm
16:11 22.0 °C 19.0 °C 1015.1 hPa WSW 17.2 km/h 21.2 km/h 80 % 0.0 mm
16:16 22.0 °C 18.0 °C 1015.1 hPa WSW 13.0 km/h 21.2 km/h 79 % 0.0 mm
16:21 22.0 °C 18.0 °C 1015.1 hPa West 11.6 km/h 21.2 km/h 79 % 0.0 mm
16:26 22.0 °C 18.0 °C 1015.1 hPa WSW 24.8 km/h 24.8 km/h 79 % 0.0 mm
16:31 21.6 °C 18.0 °C 1015.1 hPa West 23.3 km/h 24.8 km/h 79 % 0.0 mm
16:36 21.3 °C 18.0 °C 1015.1 hPa West 17.7 km/h 23.3 km/h 79 % 0.0 mm
16:41 21.4 °C 18.0 °C 1015.1 hPa West 18.3 km/h 22.7 km/h 79 % 0.0 mm
16:46 21.4 °C 18.0 °C 1015.1 hPa SSW 15.8 km/h 22.7 km/h 79 % 0.0 mm
16:51 21.4 °C 18.0 °C 1015.1 hPa West 19.5 km/h 24.8 km/h 79 % 0.0 mm
16:56 21.5 °C 18.0 °C 1015.1 hPa WSW 19.8 km/h 24.8 km/h 78 % 0.0 mm
17:01 20.9 °C 17.0 °C 1015.1 hPa WSW 16.6 km/h 24.5 km/h 78 % 0.0 mm
17:06 20.9 °C 17.0 °C 1015.1 hPa SW 15.4 km/h 20.9 km/h 78 % 0.0 mm
17:11 20.9 °C 17.0 °C 1015.1 hPa SW 9.7 km/h 17.2 km/h 78 % 0.0 mm
17:16 20.9 °C 17.0 °C 1015.1 hPa West 12.6 km/h 17.7 km/h 78 % 0.0 mm
17:21 20.2 °C 17.0 °C 1015.1 hPa West 12.2 km/h 17.7 km/h 81 % 0.0 mm
17:26 20.2 °C 17.0 °C 1015.1 hPa West 10.5 km/h 14.8 km/h 81 % 0.0 mm
17:31 20.2 °C 17.0 °C 1015.1 hPa WSW 6.1 km/h 15.8 km/h 81 % 0.0 mm
17:34 20.2 °C 17.0 °C 1015.1 hPa WSW 10.5 km/h 15.8 km/h 81 % 0.0 mm
17:39 20.2 °C 17.0 °C 1015.1 hPa WSW 10.5 km/h 16.3 km/h 81 % 0.0 mm
17:40 20.2 °C 17.0 °C 1015.1 hPa West 13.0 km/h 16.3 km/h 81 % 0.0 mm
17:45 20.2 °C 17.0 °C 1015.1 hPa WSW 14.0 km/h 15.8 km/h 81 % 0.0 mm
17:50 20.2 °C 17.0 °C 1015.1 hPa West 13.7 km/h 17.2 km/h 81 % 0.0 mm
17:55 20.2 °C 17.0 °C 1015.1 hPa WSW 6.1 km/h 17.2 km/h 81 % 0.0 mm
18:00 19.9 °C 17.0 °C 1015.1 hPa WSW 6.4 km/h 15.4 km/h 82 % 0.0 mm
18:05 19.8 °C 17.0 °C 1015.1 hPa WSW 11.1 km/h 14.0 km/h 83 % 0.0 mm
18:10 19.8 °C 17.0 °C 1015.1 hPa WSW 10.5 km/h 11.1 km/h 83 % 0.0 mm
18:15 19.8 °C 17.0 °C 1015.1 hPa WSW 8.7 km/h 13.0 km/h 83 % 0.0 mm
18:20 19.8 °C 17.0 °C 1015.1 hPa West 6.9 km/h 13.0 km/h 83 % 0.0 mm
18:25 19.8 °C 17.0 °C 1015.1 hPa Calm   8.7 km/h 83 % 0.0 mm
18:30 19.8 °C 17.0 °C 1015.1 hPa WSW 6.1 km/h 9.3 km/h 83 % 0.0 mm
18:35 19.8 °C 17.0 °C 1015.1 hPa SSW 5.8 km/h 9.3 km/h 83 % 0.0 mm
18:40 19.8 °C 17.0 °C 1015.1 hPa SW 8.7 km/h 9.0 km/h 83 % 0.0 mm
18:45 19.8 °C 17.0 °C 1014.1 hPa SSW 9.7 km/h 9.7 km/h 83 % 0.0 mm
18:50 19.6 °C 17.0 °C 1014.1 hPa Calm   9.7 km/h 84 % 0.0 mm
18:55 19.6 °C 17.0 °C 1014.1 hPa SSW 5.8 km/h 9.7 km/h 84 % 0.0 mm
19:00 19.6 °C 17.0 °C 1015.1 hPa Calm   9.7 km/h 84 % 0.0 mm
19:05 19.6 °C 17.0 °C 1015.1 hPa SW 3.2 km/h 9.3 km/h 84 % 0.0 mm
19:10 19.6 °C 17.0 °C 1015.1 hPa Calm   9.3 km/h 84 % 0.0 mm
19:15 19.7 °C 17.0 °C 1015.1 hPa Calm   7.6 km/h 83 % 0.0 mm
19:20 19.7 °C 17.0 °C 1015.1 hPa South 5.0 km/h 10.1 km/h 83 % 0.0 mm
19:25 19.7 °C 17.0 °C 1015.1 hPa SW 5.0 km/h 11.9 km/h 83 % 0.0 mm
19:30 19.7 °C 17.0 °C 1015.1 hPa South 9.0 km/h 11.9 km/h 83 % 0.0 mm
19:35 19.7 °C 17.0 °C 1015.1 hPa SSW 4.7 km/h 11.9 km/h 83 % 0.0 mm
19:40 19.7 °C 17.0 °C 1015.1 hPa SSW 5.8 km/h 11.9 km/h 83 % 0.0 mm
19:45 19.7 °C 17.0 °C 1015.1 hPa SSE 4.3 km/h 9.3 km/h 83 % 0.0 mm
19:50 19.7 °C 17.0 °C 1015.1 hPa WSW 6.4 km/h 9.3 km/h 83 % 0.0 mm
19:55 19.7 °C 17.0 °C 1015.1 hPa SW 9.0 km/h 9.7 km/h 83 % 0.0 mm
20:00 19.9 °C 17.0 °C 1015.1 hPa South 7.9 km/h 9.7 km/h 82 % 0.0 mm
20:06 19.9 °C 17.0 °C 1015.1 hPa SW 1.4 km/h 8.7 km/h 82 % 0.0 mm
20:11 19.8 °C 17.0 °C 1015.1 hPa Calm   7.9 km/h 82 % 0.0 mm
20:16 19.8 °C 17.0 °C 1015.1 hPa Calm   10.1 km/h 82 % 0.0 mm
20:21 19.6 °C 17.0 °C 1015.1 hPa Calm   10.1 km/h 83 % 0.0 mm
20:26 19.6 °C 17.0 °C 1015.1 hPa WSW 4.3 km/h 6.4 km/h 83 % 0.0 mm
20:31 19.6 °C 17.0 °C 1015.1 hPa West 4.7 km/h 8.7 km/h 83 % 0.0 mm
20:36 19.5 °C 17.0 °C 1015.1 hPa SSW 7.9 km/h 9.0 km/h 84 % 0.0 mm
20:41 19.5 °C 17.0 °C 1015.1 hPa SW 6.9 km/h 9.0 km/h 84 % 0.0 mm
20:46 19.5 °C 17.0 °C 1015.1 hPa Calm   7.9 km/h 84 % 0.0 mm
20:51 19.5 °C 17.0 °C 1015.1 hPa Calm   6.9 km/h 84 % 0.0 mm
20:56 19.5 °C 17.0 °C 1015.1 hPa SSW 4.3 km/h 9.0 km/h 84 % 0.0 mm
20:57 19.5 °C 17.0 °C 1015.1 hPa South 4.0 km/h 9.0 km/h 84 % 0.0 mm
21:02 19.5 °C 17.0 °C 1015.1 hPa Calm   9.0 km/h 84 % 0.0 mm
21:07 19.5 °C 17.0 °C 1015.1 hPa Calm   4.7 km/h 84 % 0.0 mm
21:12 19.5 °C 17.0 °C 1015.1 hPa Calm   6.9 km/h 84 % 0.0 mm
21:17 18.9 °C 17.0 °C 1015.1 hPa SSW 2.6 km/h 6.9 km/h 86 % 0.0 mm
21:22 18.7 °C 17.0 °C 1015.1 hPa Calm   5.5 km/h 87 % 0.0 mm
21:27 18.7 °C 17.0 °C 1015.1 hPa Calm   5.5 km/h 87 % 0.0 mm
21:32 18.7 °C 17.0 °C 1015.1 hPa South 1.8 km/h 4.0 km/h 87 % 0.0 mm
21:37 18.7 °C 17.0 °C 1015.1 hPa Calm   5.8 km/h 87 % 0.0 mm
21:42 18.7 °C 17.0 °C 1015.1 hPa Calm   5.8 km/h 87 % 0.0 mm
21:47 18.7 °C 17.0 °C 1015.1 hPa Calm   4.0 km/h 87 % 0.0 mm
21:52 18.7 °C 17.0 °C 1015.1 hPa Calm   4.0 km/h 87 % 0.0 mm
21:57 18.7 °C 17.0 °C 1015.1 hPa Calm   4.0 km/h 87 % 0.0 mm
22:02 18.7 °C 17.0 °C 1014.1 hPa Calm     87 % 0.0 mm
22:07 18.7 °C 17.0 °C 1014.1 hPa Calm     87 % 0.0 mm
22:12 18.7 °C 17.0 °C 1014.1 hPa Calm   1.8 km/h 87 % 0.0 mm
22:17 18.7 °C 17.0 °C 1014.1 hPa South 5.5 km/h 5.8 km/h 87 % 0.0 mm
22:22 18.2 °C 17.0 °C 1014.1 hPa Calm   5.8 km/h 91 % 0.0 mm
22:27 18.2 °C 17.0 °C 1014.1 hPa Calm   5.8 km/h 91 % 0.0 mm
22:32 18.2 °C 17.0 °C 1014.1 hPa Calm   5.8 km/h 91 % 0.0 mm
22:38 18.2 °C 17.0 °C 1014.1 hPa Calm   5.8 km/h 91 % 0.0 mm
22:43 18.3 °C 17.0 °C 1014.1 hPa Calm   4.3 km/h 92 % 0.0 mm
22:48 18.3 °C 17.0 °C 1014.1 hPa West 7.9 km/h 8.7 km/h 92 % 0.0 mm
22:53 18.3 °C 17.0 °C 1014.1 hPa WSW 8.7 km/h 15.8 km/h 92 % 0.0 mm
22:58 18.3 °C 17.0 °C 1014.1 hPa West 6.4 km/h 15.8 km/h 92 % 0.0 mm
23:03 18.3 °C 17.0 °C 1014.1 hPa SSW 7.9 km/h 13.0 km/h 92 % 0.0 mm
23:08 18.3 °C 17.0 °C 1014.1 hPa WSW 7.6 km/h 9.7 km/h 92 % 0.0 mm
23:13 17.9 °C 17.0 °C 1014.1 hPa South 2.1 km/h 9.7 km/h 95 % 0.0 mm
23:18 17.9 °C 17.0 °C 1014.1 hPa WSW 6.1 km/h 9.7 km/h 95 % 0.0 mm
23:23 17.8 °C 17.0 °C 1014.1 hPa SSW 3.5 km/h 9.7 km/h 95 % 0.0 mm
23:28 17.8 °C 17.0 °C 1014.1 hPa SW 9.0 km/h 10.8 km/h 96 % 0.0 mm
23:33 17.8 °C 17.0 °C 1014.1 hPa SW 9.7 km/h 13.7 km/h 96 % 0.0 mm
23:38 17.8 °C 17.0 °C 1014.1 hPa SW 9.0 km/h 14.8 km/h 96 % 0.0 mm
23:43 17.8 °C 17.0 °C 1014.1 hPa SW 9.3 km/h 14.8 km/h 96 % 0.0 mm
23:48 17.8 °C 17.0 °C 1014.1 hPa SSW 17.2 km/h 17.2 km/h 96 % 0.0 mm
23:53 17.8 °C 17.0 °C 1014.1 hPa West 12.2 km/h 17.2 km/h 96 % 0.0 mm
23:58 17.8 °C 17.0 °C 1014.1 hPa SW 13.0 km/h 15.8 km/h 96 % 0.0 mm
Le Gheer Warneton
Courtoisie de Weather Underground - 2.25 mb

Mise a jour : 18/12/2017 23:19:11
Généré par Cumulus 1.9.4 (1099)